Time;durP1;ratioP1;P1;durP2;ratioP2;P2;SDS_P1;SDS_P2;PMS_P1;PMS_P2;Temp;Humidity;BMP_temperature;BMP_pressure;BME280_temperature;BME280_humidity;BME280_pressure;Samples;Min_cycle;Max_cycle;Signal;HPM_P1;HPM_P2
2023/08/26 00:00:47;;;;;;;15.60;9.35;;;;;;;22.19;77.43;92502.41;2068210;69;20163;-76
2023/08/26 00:03:13;;;;;;;15.23;9.85;;;;;;;22.25;77.73;92504.63;2068125;69;20181;-76
2023/08/26 00:05:39;;;;;;;14.77;9.77;;;;;;;22.31;77.03;92507.56;2068470;69;20543;-77
2023/08/26 00:08:05;;;;;;;16.05;9.77;;;;;;;22.27;77.72;92507.53;2062219;69;20496;-77
2023/08/26 00:10:31;;;;;;;14.45;11.00;;;;;;;22.15;78.55;92504.47;2067668;69;20149;-77
2023/08/26 00:12:56;;;;;;;16.17;10.80;;;;;;;22.04;78.08;92509.31;2067703;69;20149;-76
2023/08/26 00:15:25;;;;;;;14.48;10.13;;;;;;;22.08;79.35;92506.50;2067898;69;20201;-77
2023/08/26 00:17:51;;;;;;;18.45;9.77;;;;;;;22.05;79.58;92514.34;2067818;69;20337;-76
2023/08/26 00:20:16;;;;;;;14.50;9.88;;;;;;;21.84;79.63;92506.84;2068122;69;20652;-76
2023/08/26 00:22:42;;;;;;;18.77;10.57;;;;;;;21.81;80.17;92506.09;2068142;69;20152;-76
2023/08/26 00:25:09;;;;;;;16.60;10.25;;;;;;;22.10;78.28;92515.13;2068175;69;20144;-76
2023/08/26 00:27:34;;;;;;;15.48;9.55;;;;;;;22.20;77.00;92523.19;2064854;69;20155;-77
2023/08/26 00:30:00;;;;;;;16.20;10.40;;;;;;;22.26;78.06;92520.41;2068177;69;20200;-78
2023/08/26 00:32:27;;;;;;;15.57;10.65;;;;;;;22.27;78.53;92527.59;2064763;69;20151;-76
2023/08/26 00:34:53;;;;;;;17.30;10.85;;;;;;;22.25;77.97;92527.56;2064665;69;20136;-77
2023/08/26 00:37:19;;;;;;;16.88;10.38;;;;;;;22.32;77.62;92535.56;2067905;69;20496;-76
2023/08/26 00:39:46;;;;;;;16.92;11.00;;;;;;;22.26;78.10;92531.88;2061968;69;20165;-76
2023/08/26 00:42:12;;;;;;;15.48;11.05;;;;;;;22.17;78.30;92539.63;2064746;69;20626;-77
2023/08/26 00:44:39;;;;;;;14.48;10.52;;;;;;;21.23;83.21;92548.72;2067549;69;20156;-77
2023/08/26 00:47:05;;;;;;;17.63;10.65;;;;;;;21.66;81.20;92541.66;2064735;69;20171;-78
2023/08/26 00:49:31;;;;;;;15.48;10.13;;;;;;;21.73;78.40;92548.22;2064778;69;20587;-76
2023/08/26 00:51:57;;;;;;;14.23;9.55;;;;;;;21.97;78.73;92545.75;2064687;69;20148;-77
2023/08/26 00:54:23;;;;;;;13.90;10.27;;;;;;;21.93;79.28;92536.34;2064721;69;20693;-78
2023/08/26 00:56:49;;;;;;;16.42;11.05;;;;;;;22.06;78.79;92530.13;2064452;69;20555;-77
2023/08/26 00:59:14;;;;;;;14.82;10.75;;;;;;;21.88;79.39;92515.50;2068004;69;20172;-76
2023/08/26 01:01:41;;;;;;;16.65;12.00;;;;;;;21.87;80.09;92487.56;2064701;69;20132;-76
2023/08/26 01:04:07;;;;;;;17.17;11.95;;;;;;;21.99;79.47;92479.13;2064925;69;20231;-76
2023/08/26 01:06:33;;;;;;;16.08;11.38;;;;;;;22.06;79.55;92472.09;2068082;69;20557;-76
2023/08/26 01:08:59;;;;;;;15.77;10.30;;;;;;;21.98;79.66;92464.09;2064727;69;20145;-76
2023/08/26 01:12:06;;;;;;;16.95;10.90;;;;;;;21.96;79.82;92452.59;2064183;69;20140;-76
2023/08/26 01:14:37;;;;;;;15.25;11.25;;;;;;;21.93;79.89;92459.72;2056840;69;20723;-77
2023/08/26 01:17:05;;;;;;;19.60;11.25;;;;;;;21.96;78.01;92478.38;2062503;69;20220;-76
2023/08/26 01:19:33;;;;;;;17.30;11.40;;;;;;;21.83;80.43;92488.22;2064606;69;20652;-77
2023/08/26 01:22:04;;;;;;;17.13;10.82;;;;;;;21.87;80.28;92473.22;2064777;69;20256;-77
2023/08/26 01:24:31;;;;;;;17.15;10.95;;;;;;;22.04;77.07;92469.91;2064147;69;20148;-78
2023/08/26 01:26:58;;;;;;;16.90;11.45;;;;;;;22.06;77.21;92469.94;2064147;69;20165;-78
2023/08/26 01:29:25;;;;;;;18.33;11.23;;;;;;;22.05;77.15;92462.75;2064252;69;20539;-79
2023/08/26 01:32:18;;;;;;;18.67;11.40;;;;;;;22.07;78.79;92464.91;2067087;69;20137;-78
2023/08/26 01:35:08;;;;;;;16.40;11.77;;;;;;;21.90;80.55;92463.22;2062691;69;20243;-76
2023/08/26 01:37:38;;;;;;;16.00;11.70;;;;;;;21.92;80.01;92461.13;2064913;69;20157;-80
2023/08/26 01:40:06;;;;;;;18.73;11.60;;;;;;;22.07;77.96;92467.78;2065164;69;20144;-78
2023/08/26 01:42:33;;;;;;;16.38;11.48;;;;;;;22.11;77.91;92472.88;2064543;69;20184;-75
2023/08/26 01:44:58;;;;;;;20.25;13.10;;;;;;;21.81;80.15;92479.59;2064967;69;20695;-75
2023/08/26 01:47:25;;;;;;;21.23;12.45;;;;;;;21.91;79.16;92474.03;2067450;69;20607;-77
2023/08/26 01:53:38;;;;;;;17.30;12.85;;;;;;;22.08;78.52;92500.75;2065103;69;20183;-80
2023/08/26 01:56:10;;;;;;;15.95;11.73;;;;;;;22.03;78.58;92485.66;2064625;69;20217;-81
2023/08/26 01:58:47;;;;;;;19.80;11.57;;;;;;;22.02;79.47;92494.94;2064680;69;20686;-81
2023/08/26 02:01:13;;;;;;;16.38;10.35;;;;;;;22.15;77.13;92502.34;2067511;69;20167;-82
2023/08/26 02:03:38;;;;;;;15.60;11.38;;;;;;;22.05;78.63;92510.78;2064322;69;20152;-81
2023/08/26 02:06:04;;;;;;;16.45;11.82;;;;;;;21.96;78.66;92524.25;2065221;69;20125;-82
2023/08/26 02:08:30;;;;;;;15.77;11.40;;;;;;;22.01;78.59;92560.16;2065360;69;20244;-82
2023/08/26 02:10:57;;;;;;;18.95;11.43;;;;;;;22.07;78.00;92585.31;2066090;69;20141;-82
2023/08/26 02:17:17;;;;;;;14.95;11.27;;;;;;;21.83;79.70;92594.94;2070826;69;20127;-81
2023/08/26 02:19:43;;;;;;;13.38;11.48;;;;;;;21.48;80.02;92599.31;2067796;69;20149;-82
2023/08/26 02:22:09;;;;;;;15.80;10.40;;;;;;;21.72;78.49;92590.47;2067806;69;20144;-82
2023/08/26 02:24:38;;;;;;;15.88;10.02;;;;;;;21.81;77.19;92585.63;2065721;69;20202;-81
2023/08/26 02:30:53;;;;;;;9.35;5.20;;;;;;;21.76;70.87;92564.75;2068199;69;20216;-83
2023/08/26 02:33:19;;;;;;;5.18;3.53;;;;;;;21.67;69.33;92557.44;2068341;69;20164;-82
2023/08/26 02:35:46;;;;;;;5.60;4.10;;;;;;;21.51;69.39;92548.56;2064654;69;20184;-81
2023/08/26 02:38:14;;;;;;;9.50;4.50;;;;;;;21.67;72.13;92556.69;2064961;69;20586;-81
2023/08/26 02:40:40;;;;;;;9.23;4.28;;;;;;;21.54;73.92;92561.50;2065188;69;20160;-83
2023/08/26 02:43:06;;;;;;;5.55;4.05;;;;;;;21.53;74.34;92574.34;2065077;69;20152;-82
2023/08/26 02:45:32;;;;;;;8.80;4.00;;;;;;;21.41;74.38;92572.00;2065101;69;20152;-82
2023/08/26 02:47:57;;;;;;;7.15;3.50;;;;;;;21.38;72.13;92586.97;2068452;69;20145;-82
2023/08/26 02:50:24;;;;;;;5.32;3.50;;;;;;;21.38;71.56;92595.56;2064973;69;20148;-82
2023/08/26 02:52:50;;;;;;;6.18;3.20;;;;;;;21.29;71.85;92612.53;2065173;69;20599;-80
2023/08/26 02:59:09;;;;;;;8.97;3.70;;;;;;;21.26;73.85;92654.00;2068693;69;20202;-81
2023/08/26 03:01:36;;;;;;;6.32;3.40;;;;;;;21.21;73.75;92666.78;2065104;69;20664;-81
2023/08/26 03:04:03;;;;;;;9.30;3.88;;;;;;;21.21;74.41;92674.63;2068423;69;20156;-81
2023/08/26 03:06:30;;;;;;;6.65;3.40;;;;;;;21.25;72.73;92694.75;2067849;69;20219;-81
2023/08/26 03:08:55;;;;;;;8.45;3.90;;;;;;;21.28;74.26;92717.03;2064880;69;20141;-80
2023/08/26 03:11:22;;;;;;;8.40;3.40;;;;;;;21.21;73.26;92743.34;2067150;69;20181;-81
2023/08/26 03:13:49;;;;;;;2.83;2.05;;;;;;;20.73;70.98;92747.28;2064332;69;20153;-80
2023/08/26 03:20:05;;;;;;;6.07;2.45;;;;;;;20.14;71.86;92782.19;2065012;69;20195;-81
2023/08/26 03:22:31;;;;;;;10.45;2.50;;;;;;;20.36;72.13;92785.66;2064876;69;20141;-80
2023/08/26 03:24:56;;;;;;;5.78;2.20;;;;;;;20.61;72.03;92789.16;2064357;69;20156;-81
2023/08/26 03:27:22;;;;;;;5.47;2.60;;;;;;;20.44;71.47;92779.41;2067264;69;20604;-81
2023/08/26 03:29:47;;;;;;;5.55;2.63;;;;;;;20.23;73.30;92787.47;2064160;69;20222;-81
2023/08/26 03:32:13;;;;;;;6.07;2.38;;;;;;;20.33;73.64;92800.56;2064912;69;20133;-81
2023/08/26 03:34:40;;;;;;;8.35;2.42;;;;;;;20.28;74.24;92811.88;2067749;69;20176;-81
2023/08/26 03:37:06;;;;;;;5.80;2.60;;;;;;;20.34;73.12;92794.16;2067150;69;20169;-81
2023/08/26 03:39:32;;;;;;;7.03;2.30;;;;;;;20.52;71.57;92779.63;2064493;69;20161;-81
2023/08/26 03:41:59;;;;;;;7.18;2.20;;;;;;;20.32;73.17;92782.69;2064932;69;20589;-81
2023/08/26 03:44:27;;;;;;;8.20;2.83;;;;;;;20.29;75.16;92761.16;2064939;69;20141;-81
2023/08/26 03:46:53;;;;;;;7.30;3.10;;;;;;;20.30;74.99;92748.34;2067238;69;20144;-81
2023/08/26 03:49:20;;;;;;;11.38;2.83;;;;;;;20.39;74.75;92729.97;2064405;69;20145;-80
2023/08/26 03:51:46;;;;;;;7.03;2.70;;;;;;;20.33;75.12;92695.50;2064325;69;20145;-82
2023/08/26 03:54:11;;;;;;;7.50;2.78;;;;;;;19.88;76.08;92667.94;2064975;69;20165;-81
2023/08/26 03:56:37;;;;;;;4.00;2.90;;;;;;;18.82;80.42;92637.19;2064455;69;20148;-81
2023/08/26 04:02:51;;;;;;;4.28;2.42;;;;;;;19.63;77.39;92549.50;2064559;69;20568;-83
2023/08/26 04:05:18;;;;;;;6.90;2.50;;;;;;;19.44;79.01;92551.16;2064341;69;20600;-82
2023/08/26 04:07:44;;;;;;;4.43;2.72;;;;;;;19.67;77.04;92555.34;2064451;69;20157;-83
2023/08/26 04:10:10;;;;;;;3.53;2.25;;;;;;;19.39;79.00;92556.03;2064019;69;20156;-82
2023/08/26 04:12:35;;;;;;;3.28;2.40;;;;;;;19.65;76.88;92572.41;2063730;69;20704;-83
2023/08/26 04:15:01;;;;;;;4.93;2.55;;;;;;;19.10;80.18;92593.75;2066394;69;20764;-82
2023/08/26 04:17:26;;;;;;;4.75;2.50;;;;;;;19.34;78.30;92608.72;2066784;69;20223;-82
2023/08/26 04:19:52;;;;;;;5.70;2.42;;;;;;;18.95;80.06;92618.31;2066863;69;20240;-83
2023/08/26 04:22:17;;;;;;;5.10;2.58;;;;;;;19.33;79.61;92632.91;2066662;69;20141;-82
2023/08/26 04:24:43;;;;;;;7.72;2.70;;;;;;;19.02;79.64;92654.91;2063929;69;20145;-83
2023/08/26 04:27:08;;;;;;;6.70;2.75;;;;;;;19.10;80.51;92674.38;2063810;69;20144;-82
2023/08/26 04:29:34;;;;;;;3.47;2.40;;;;;;;19.29;79.51;92673.50;2064514;69;20143;-83
2023/08/26 04:32:00;;;;;;;4.93;2.60;;;;;;;19.40;79.29;92677.38;2064556;69;20145;-82
2023/08/26 04:34:26;;;;;;;6.72;2.70;;;;;;;19.41;79.27;92675.25;2064646;69;20150;-83
2023/08/26 04:36:52;;;;;;;5.47;2.60;;;;;;;19.44;78.45;92665.34;2064551;69;20173;-83
2023/08/26 04:39:20;;;;;;;4.22;2.60;;;;;;;19.44;78.18;92665.34;2064640;69;20219;-82
2023/08/26 04:41:45;;;;;;;6.28;2.47;;;;;;;19.41;78.91;92658.84;2063677;69;20149;-83
2023/08/26 04:44:12;;;;;;;7.63;2.75;;;;;;;19.51;79.17;92659.09;2063916;69;20637;-80
2023/08/26 04:46:37;;;;;;;4.05;2.80;;;;;;;19.65;78.38;92652.34;2066768;69;20536;-80
2023/08/26 04:49:03;;;;;;;6.80;2.58;;;;;;;19.63;79.07;92638.75;2063964;69;20151;-80
2023/08/26 04:51:30;;;;;;;5.38;2.25;;;;;;;19.64;77.21;92636.63;2063991;69;20145;-80
2023/08/26 04:53:55;;;;;;;5.28;2.50;;;;;;;19.58;78.38;92645.75;2063746;69;20148;-80
2023/08/26 04:56:21;;;;;;;6.68;2.38;;;;;;;19.52;79.13;92637.03;2063736;69;20233;-80
2023/08/26 04:58:46;;;;;;;4.78;2.80;;;;;;;19.47;79.35;92633.34;2064459;69;20658;-80
2023/08/26 05:01:12;;;;;;;6.50;2.78;;;;;;;19.23;80.60;92636.22;2063947;69;20148;-83
2023/08/26 05:03:37;;;;;;;8.88;3.17;;;;;;;19.28;80.05;92629.22;2063887;69;20144;-82
2023/08/26 05:06:03;;;;;;;3.67;2.30;;;;;;;19.46;79.33;92633.97;2064402;69;20145;-82
2023/08/26 05:08:29;;;;;;;3.72;2.50;;;;;;;19.49;79.15;92644.06;2066607;69;20153;-82
2023/08/26 05:10:54;;;;;;;4.93;2.65;;;;;;;19.60;78.70;92640.09;2066577;69;20149;-82
2023/08/26 05:13:20;;;;;;;4.57;2.33;;;;;;;19.75;77.00;92641.22;2064643;69;20616;-82
2023/08/26 05:15:46;;;;;;;4.80;3.10;;;;;;;19.47;77.73;92636.19;2064969;69;20148;-82
2023/08/26 05:22:01;;;;;;;6.20;2.65;;;;;;;19.57;78.95;92632.16;2064885;69;20127;-83
2023/08/26 05:24:27;;;;;;;4.55;2.95;;;;;;;19.58;78.27;92628.59;2064226;69;20208;-81
2023/08/26 05:26:53;;;;;;;8.55;2.75;;;;;;;19.69;78.20;92629.63;2064943;69;20752;-81
2023/08/26 05:29:20;;;;;;;4.30;2.70;;;;;;;19.74;77.78;92634.75;2064443;69;20148;-82
2023/08/26 05:31:46;;;;;;;5.88;2.70;;;;;;;19.81;77.86;92638.50;2064575;69;20141;-81
2023/08/26 05:34:12;;;;;;;4.55;2.97;;;;;;;19.87;77.75;92638.66;2064519;69;20210;-81
2023/08/26 05:36:37;;;;;;;4.25;2.80;;;;;;;19.60;78.47;92642.94;2064557;69;20153;-81
2023/08/26 05:39:03;;;;;;;4.38;2.97;;;;;;;19.26;80.24;92639.88;2064527;69;20153;-81
2023/08/26 05:41:28;;;;;;;7.10;2.90;;;;;;;19.70;78.14;92643.25;2064520;69;20235;-81
2023/08/26 05:43:54;;;;;;;5.55;2.90;;;;;;;19.85;77.53;92635.03;2064488;69;20631;-81
2023/08/26 05:46:20;;;;;;;4.30;3.28;;;;;;;19.92;77.25;92633.78;2064448;69;20164;-81
2023/08/26 05:48:46;;;;;;;7.80;3.10;;;;;;;20.04;76.88;92636.94;2064464;69;20177;-82
2023/08/26 05:51:11;;;;;;;6.10;2.83;;;;;;;20.03;77.80;92639.06;2064408;69;20172;-82
2023/08/26 05:53:37;;;;;;;7.43;3.03;;;;;;;20.12;77.70;92642.13;2064842;69;20137;-82
2023/08/26 05:56:03;;;;;;;8.40;3.45;;;;;;;20.15;77.21;92646.47;2064452;69;20156;-82
2023/08/26 05:58:29;;;;;;;6.60;3.70;;;;;;;20.12;77.49;92645.72;2064438;69;20161;-81
2023/08/26 06:00:54;;;;;;;6.00;3.40;;;;;;;20.16;75.81;92645.81;2064574;69;20137;-81
2023/08/26 06:03:20;;;;;;;6.18;3.30;;;;;;;20.09;76.72;92654.91;2065011;69;20157;-81
2023/08/26 06:05:49;;;;;;;6.50;3.50;;;;;;;20.18;77.25;92660.16;2064513;69;20598;-81
2023/08/26 06:12:02;;;;;;;6.40;3.38;;;;;;;20.29;76.19;92661.84;2067645;69;20183;-82
2023/08/26 06:14:27;;;;;;;7.78;3.65;;;;;;;19.74;77.62;92654.03;2067879;69;20171;-81
2023/08/26 06:16:53;;;;;;;7.28;3.40;;;;;;;20.09;75.71;92649.19;2068189;69;20160;-81
2023/08/26 06:19:18;;;;;;;4.70;3.55;;;;;;;20.11;77.07;92647.09;2067736;69;20222;-80
2023/08/26 06:21:45;;;;;;;4.45;3.22;;;;;;;20.33;76.68;92644.06;2067472;69;20635;-81
2023/08/26 06:24:10;;;;;;;6.13;2.92;;;;;;;20.30;77.07;92651.88;2064713;69;20136;-81
2023/08/26 06:26:36;;;;;;;7.28;3.20;;;;;;;20.06;74.27;92640.56;2068074;69;20244;-82
2023/08/26 06:29:02;;;;;;;6.18;3.22;;;;;;;20.23;75.91;92649.53;2067782;69;20184;-81
2023/08/26 06:31:29;;;;;;;3.42;3.13;;;;;;;20.52;75.63;92648.81;2068333;69;20149;-80
2023/08/26 06:33:55;;;;;;;7.45;3.60;;;;;;;20.79;74.36;92640.84;2067657;69;20195;-81
2023/08/26 06:36:20;;;;;;;5.95;3.42;;;;;;;20.76;73.90;92634.34;2064865;69;20212;-82
2023/08/26 06:38:46;;;;;;;6.30;3.70;;;;;;;20.92;74.53;92648.28;2068121;69;20591;-86
2023/08/26 06:41:14;;;;;;;7.75;4.05;;;;;;;20.98;74.71;92641.94;2064984;69;20156;-82
2023/08/26 06:43:41;;;;;;;6.70;3.70;;;;;;;21.12;74.02;92641.53;2068138;69;20156;-83
2023/08/26 06:49:59;;;;;;;6.30;3.83;;;;;;;21.29;74.37;92638.31;2068281;69;20152;-81
2023/08/26 06:52:27;;;;;;;4.78;3.70;;;;;;;21.52;73.34;92633.06;2068122;69;20144;-81
2023/08/26 06:54:54;;;;;;;5.53;3.28;;;;;;;21.73;72.35;92632.03;2062223;69;20568;-82
2023/08/26 06:57:20;;;;;;;4.57;3.00;;;;;;;21.66;71.60;92616.13;2068128;69;20158;-84
2023/08/26 06:59:45;;;;;;;5.88;2.90;;;;;;;21.10;71.84;92619.31;2068190;69;20142;-82
2023/08/26 07:02:11;;;;;;;4.22;2.60;;;;;;;21.09;71.74;92622.88;2068282;69;20196;-83
2023/08/26 07:08:24;;;;;;;4.90;3.00;;;;;;;21.97;71.23;92625.28;2068126;69;20230;-82
2023/08/26 07:10:49;;;;;;;6.50;2.92;;;;;;;22.00;70.28;92618.88;2068365;69;20199;-83
2023/08/26 07:13:15;;;;;;;3.50;2.50;;;;;;;22.05;69.58;92622.56;2068642;69;20147;-82
2023/08/26 07:15:40;;;;;;;6.00;2.85;;;;;;;21.77;70.83;92611.31;2068092;69;20667;-82
2023/08/26 07:18:06;;;;;;;3.00;2.50;;;;;;;21.46;69.09;92598.56;2065282;69;20755;-83
2023/08/26 07:20:32;;;;;;;3.90;2.72;;;;;;;22.01;69.55;92611.00;2068522;69;20164;-83
2023/08/26 07:22:58;;;;;;;3.63;2.97;;;;;;;22.12;68.12;92604.03;2068448;69;20152;-83
2023/08/26 07:25:23;;;;;;;3.58;2.55;;;;;;;22.70;67.96;92597.75;2068526;69;20160;-83
2023/08/26 07:27:49;;;;;;;4.95;2.38;;;;;;;23.29;67.95;92603.56;2068490;69;20144;-87
2023/08/26 07:30:15;;;;;;;4.03;2.53;;;;;;;23.65;67.97;92597.53;2065193;69;20156;-86
2023/08/26 07:32:41;;;;;;;2.95;2.42;;;;;;;23.86;66.14;92592.00;2069050;69;20218;-86
2023/08/26 07:35:09;;;;;;;3.83;2.20;;;;;;;23.23;65.09;92580.50;2068418;69;20261;-82
2023/08/26 07:37:36;;;;;;;3.90;2.70;;;;;;;24.00;65.75;92587.09;2068321;69;20136;-84
2023/08/26 07:40:01;;;;;;;3.05;2.40;;;;;;;23.84;64.01;92586.97;2068449;69;20152;-82
2023/08/26 07:42:27;;;;;;;3.67;2.10;;;;;;;24.04;62.01;92598.63;2068408;69;20546;-82
2023/08/26 07:44:54;;;;;;;4.70;2.13;;;;;;;24.65;63.66;92606.31;2064985;69;20140;-82
2023/08/26 07:47:20;;;;;;;2.83;2.25;;;;;;;24.87;60.45;92606.47;2068390;69;20584;-83
2023/08/26 07:49:47;;;;;;;2.95;2.30;;;;;;;25.09;58.46;92608.78;2065450;69;20155;-86
2023/08/26 07:52:13;;;;;;;3.17;2.10;;;;;;;25.26;60.74;92598.06;2068870;69;20160;-83
2023/08/26 07:54:38;;;;;;;2.72;2.20;;;;;;;25.47;57.21;92598.84;2068380;69;20152;-83
2023/08/26 07:57:04;;;;;;;3.13;2.17;;;;;;;24.83;58.84;92595.66;2068504;69;20148;-81
2023/08/26 07:59:29;;;;;;;4.35;2.67;;;;;;;24.68;59.05;92608.50;2068467;69;20129;-83
2023/08/26 08:01:55;;;;;;;3.00;2.10;;;;;;;25.09;57.94;92614.53;2068552;69;20145;-85
2023/08/26 08:04:20;;;;;;;5.03;2.20;;;;;;;25.28;56.69;92603.81;2068440;69;20177;-84
2023/08/26 08:06:46;;;;;;;3.00;2.25;;;;;;;26.06;56.61;92596.88;2068420;69;20524;-84
2023/08/26 08:09:12;;;;;;;7.63;2.25;;;;;;;26.73;53.94;92601.22;2068471;69;20306;-79
2023/08/26 08:11:37;;;;;;;4.10;2.40;;;;;;;27.13;52.43;92597.56;2068384;69;20153;-83
2023/08/26 08:14:03;;;;;;;5.43;2.80;;;;;;;27.31;51.01;92599.69;2068357;69;20145;-84
2023/08/26 08:16:29;;;;;;;3.20;2.22;;;;;;;27.78;51.90;92603.13;2068540;69;20477;-82
2023/08/26 08:18:54;;;;;;;3.85;2.30;;;;;;;27.14;49.29;92595.41;2068626;69;20161;-84
2023/08/26 08:21:20;;;;;;;2.33;2.13;;;;;;;27.04;51.60;92596.84;2068429;69;20151;-83
2023/08/26 08:23:46;;;;;;;2.15;1.90;;;;;;;27.43;51.22;92596.03;2068383;69;20148;-85
2023/08/26 08:26:11;;;;;;;3.30;2.17;;;;;;;27.46;50.44;92595.28;2068367;69;20478;-82
2023/08/26 08:28:38;;;;;;;3.35;2.17;;;;;;;27.60;49.98;92591.63;2068059;69;20149;-84
2023/08/26 08:31:04;;;;;;;3.47;2.40;;;;;;;27.07;49.98;92586.72;2068284;69;20163;-84
2023/08/26 08:33:29;;;;;;;4.10;2.45;;;;;;;26.97;51.18;92589.63;2068204;69;20157;-87
2023/08/26 08:35:55;;;;;;;4.75;2.28;;;;;;;26.94;54.17;92585.31;2068545;69;20144;-87
2023/08/26 08:42:14;;;;;;;5.97;2.47;;;;;;;26.80;55.76;92579.56;2068597;69;20123;-84
2023/08/26 08:44:49;;;;;;;4.85;2.33;;;;;;;27.09;58.14;92580.97;2068615;69;20527;-87
2023/08/26 08:47:16;;;;;;;6.03;3.08;;;;;;;26.90;57.24;92582.44;2068420;69;20152;-89
2023/08/26 08:49:43;;;;;;;3.58;2.42;;;;;;;27.47;54.19;92590.22;2068444;69;20567;-89
2023/08/26 08:52:10;;;;;;;4.97;3.00;;;;;;;27.15;53.84;92599.72;2068597;69;20224;-86
2023/08/26 08:54:36;;;;;;;3.90;2.35;;;;;;;27.60;51.71;92594.50;2065272;69;20153;-89
2023/08/26 08:57:03;;;;;;;2.42;2.08;;;;;;;28.61;47.32;92604.75;2070470;69;20202;-88
2023/08/26 08:59:32;;;;;;;3.20;1.98;;;;;;;28.96;47.42;92618.25;2069918;69;20144;-89
2023/08/26 09:01:59;;;;;;;2.80;2.08;;;;;;;28.37;45.74;92616.53;2068944;69;20195;-89
2023/08/26 09:08:16;;;;;;;2.88;2.00;;;;;;;29.02;49.00;92616.00;2068575;69;20155;-86
2023/08/26 09:10:44;;;;;;;2.42;2.10;;;;;;;29.23;48.09;92607.84;2068833;69;20227;-85
2023/08/26 09:13:09;;;;;;;3.25;2.00;;;;;;;28.42;45.47;92603.47;2068563;69;20156;-85
2023/08/26 09:15:35;;;;;;;2.30;1.90;;;;;;;28.71;45.58;92611.91;2068062;69;20144;-86
2023/08/26 09:18:02;;;;;;;3.75;1.90;;;;;;;28.91;50.44;92602.31;2068739;69;20224;-86
2023/08/26 09:20:29;;;;;;;5.05;2.20;;;;;;;29.49;45.90;92606.09;2070671;69;20157;-86
2023/08/26 09:23:04;;;;;;;4.07;1.95;;;;;;;29.18;44.04;92597.00;2069949;69;20152;-87
2023/08/26 09:25:33;;;;;;;3.95;2.25;;;;;;;27.86;46.58;92599.47;2068910;69;20209;-85
2023/08/26 09:28:00;;;;;;;2.28;1.77;;;;;;;28.06;45.28;92590.66;2068733;69;20156;-86
2023/08/26 09:30:26;;;;;;;6.00;2.22;;;;;;;27.90;46.57;92590.75;2069104;69;20186;-84
2023/08/26 09:32:53;;;;;;;2.50;2.30;;;;;;;26.63;48.39;92590.41;2068520;69;20231;-83
2023/08/26 09:35:19;;;;;;;2.85;2.53;;;;;;;26.08;50.03;92587.50;2068595;69;20201;-83
2023/08/26 09:37:56;;;;;;;4.15;2.30;;;;;;;28.10;47.23;92581.97;2068295;69;20148;-85
2023/08/26 09:40:22;;;;;;;3.50;2.30;;;;;;;27.86;47.77;92574.16;2068788;69;20156;-84
2023/08/26 09:42:49;;;;;;;4.38;2.33;;;;;;;27.96;48.51;92572.66;2068585;69;20153;-84
2023/08/26 09:45:17;;;;;;;3.40;2.60;;;;;;;27.49;47.77;92576.50;2068429;69;20148;-85
2023/08/26 09:47:47;;;;;;;2.92;2.60;;;;;;;27.55;48.07;92564.19;2065045;69;20167;-84
2023/08/26 09:50:12;;;;;;;3.85;2.65;;;;;;;27.66;49.14;92559.06;2068679;69;20172;-85
2023/08/26 09:52:49;;;;;;;2.60;2.40;;;;;;;28.19;49.08;92550.78;2068324;69;20555;-83
2023/08/26 09:55:15;;;;;;;3.08;2.45;;;;;;;28.23;46.65;92542.09;2068324;69;20156;-87
2023/08/26 09:57:43;;;;;;;2.42;2.22;;;;;;;27.92;45.80;92535.78;2068301;69;20145;-85
2023/08/26 10:00:13;;;;;;;3.00;2.65;;;;;;;29.24;43.43;92530.28;2068777;69;20291;-83
2023/08/26 10:02:51;;;;;;;4.15;2.47;;;;;;;30.44;42.85;92519.91;2068729;69;20622;-84
2023/08/26 10:05:18;;;;;;;2.63;2.25;;;;;;;29.21;44.63;92523.78;2068225;69;20172;-84
2023/08/26 10:07:49;;;;;;;2.72;2.35;;;;;;;30.20;43.78;92518.13;2068526;69;20531;-85
2023/08/26 10:14:18;;;;;;;2.70;2.40;;;;;;;29.62;41.60;92497.91;2067758;69;20148;-85
2023/08/26 10:16:45;;;;;;;2.50;2.25;;;;;;;28.59;43.94;92499.78;2068738;69;20507;-86
2023/08/26 10:19:14;;;;;;;2.40;2.20;;;;;;;31.68;40.60;92490.00;2066354;69;20145;-85
2023/08/26 10:21:40;;;;;;;4.63;2.40;;;;;;;31.97;40.25;92490.78;2069106;69;20584;-86
2023/08/26 10:24:09;;;;;;;2.97;2.58;;;;;;;32.80;38.40;92496.06;2065082;69;20139;-80
2023/08/26 10:26:35;;;;;;;4.28;2.40;;;;;;;32.58;39.15;92498.09;2068677;69;20129;-82
2023/08/26 10:29:01;;;;;;;2.75;2.22;;;;;;;33.62;38.15;92491.66;2068703;69;20620;-85
2023/08/26 10:31:36;;;;;;;2.30;1.88;;;;;;;34.77;36.42;92485.91;2068691;69;20177;-85
2023/08/26 10:34:13;;;;;;;2.25;2.05;;;;;;;35.71;35.99;92485.53;2069296;69;20148;-86
2023/08/26 10:36:46;;;;;;;3.03;2.20;;;;;;;34.93;34.74;92475.88;2068276;69;20204;-87
2023/08/26 10:39:21;;;;;;;2.47;1.92;;;;;;;33.58;36.16;92472.06;2066039;69;20152;-85
2023/08/26 10:42:12;;;;;;;4.63;2.00;;;;;;;36.78;32.72;92459.34;2069287;69;20148;-85
2023/08/26 10:44:44;;;;;;;2.33;1.60;;;;;;;38.64;31.11;92455.31;2068709;69;20241;-83
2023/08/26 10:47:11;;;;;;;4.05;1.90;;;;;;;39.53;29.61;92469.22;2065262;69;20603;-86
2023/08/26 10:49:37;;;;;;;3.55;2.00;;;;;;;39.14;29.76;92459.47;2065435;69;20149;-85
2023/08/26 10:52:17;;;;;;;2.38;2.00;;;;;;;40.58;27.92;92459.13;2068218;69;20229;-85
2023/08/26 10:54:44;;;;;;;2.83;1.92;;;;;;;40.80;27.82;92463.03;2068747;69;20195;-83
2023/08/26 11:00:57;;;;;;;2.30;1.90;;;;;;;38.95;27.62;92465.56;2068618;69;20205;-84
2023/08/26 11:03:28;;;;;;;2.40;1.80;;;;;;;41.19;27.85;92460.75;2068587;69;20228;-84
2023/08/26 11:06:02;;;;;;;2.35;2.00;;;;;;;40.24;25.88;92461.78;2068585;69;20137;-84
2023/08/26 11:08:29;;;;;;;2.03;1.83;;;;;;;39.32;27.01;92449.00;2064973;69;20222;-85
2023/08/26 11:10:56;;;;;;;1.73;1.58;;;;;;;42.84;23.58;92441.59;2068589;69;20149;-83
2023/08/26 11:13:22;;;;;;;3.25;1.45;;;;;;;43.78;24.53;92450.09;2068596;69;20690;-83
2023/08/26 11:15:50;;;;;;;1.95;1.50;;;;;;;43.47;23.66;92430.75;2068476;69;20145;-84
2023/08/26 11:18:16;;;;;;;1.85;1.70;;;;;;;43.49;24.21;92430.63;2068432;69;20596;-85
2023/08/26 11:20:43;;;;;;;1.60;1.50;;;;;;;45.11;23.19;92432.34;2068376;69;20172;-84
2023/08/26 11:23:09;;;;;;;3.60;1.70;;;;;;;44.66;23.82;92435.66;2068363;69;20148;-86
2023/08/26 11:25:36;;;;;;;1.80;1.70;;;;;;;46.95;21.22;92430.50;2068581;69;20247;-84
2023/08/26 11:28:14;;;;;;;2.25;1.60;;;;;;;45.81;20.48;92428.44;2068517;69;20676;-82
2023/08/26 11:30:48;;;;;;;3.88;1.80;;;;;;;44.19;21.14;92421.22;2068430;69;20602;-84
2023/08/26 11:33:16;;;;;;;1.75;1.50;;;;;;;44.88;23.31;92421.41;2065142;69;20141;-83
2023/08/26 11:35:47;;;;;;;1.98;1.80;;;;;;;41.13;24.76;92409.41;2065209;69;20152;-84
2023/08/26 11:38:16;;;;;;;1.50;1.40;;;;;;;43.38;23.90;92412.81;2068441;69;20267;-83
2023/08/26 11:40:45;;;;;;;3.33;1.67;;;;;;;47.31;21.48;92414.13;2068426;69;20165;-83
2023/08/26 11:43:16;;;;;;;3.15;1.80;;;;;;;47.14;20.03;92405.84;2068489;69;20140;-83
2023/08/26 11:45:46;;;;;;;2.28;1.45;;;;;;;45.78;21.76;92397.50;2068481;69;20132;-83
2023/08/26 11:48:13;;;;;;;1.60;1.50;;;;;;;43.04;22.45;92368.53;2068745;69;20147;-83
2023/08/26 11:50:40;;;;;;;3.53;2.38;;;;;;;47.75;19.86;92367.19;2068019;69;20233;-84
2023/08/26 11:53:08;;;;;;;1.55;1.45;;;;;;;49.18;17.68;92376.00;2069410;69;20145;-83
2023/08/26 11:55:35;;;;;;;3.28;1.60;;;;;;;50.32;16.93;92364.50;2068417;69;20255;-83
2023/08/26 11:58:02;;;;;;;2.80;1.60;;;;;;;46.04;19.85;92356.00;2068483;69;20218;-83
2023/08/26 12:00:28;;;;;;;2.25;1.70;;;;;;;49.14;18.68;92360.75;2068558;69;20183;-85
2023/08/26 12:03:04;;;;;;;1.65;1.55;;;;;;;50.36;17.36;92361.13;2068452;69;20246;-84
2023/08/26 12:05:49;;;;;;;1.65;1.52;;;;;;;51.68;15.74;92355.47;2068658;69;20137;-83
2023/08/26 12:08:16;;;;;;;2.53;1.42;;;;;;;48.41;17.31;92338.97;2068184;69;20152;-84
2023/08/26 12:10:46;;;;;;;1.45;1.33;;;;;;;51.62;15.83;92344.78;2068485;69;20159;-84
2023/08/26 12:13:12;;;;;;;2.72;1.60;;;;;;;52.09;15.67;92337.63;2068442;69;20152;-84
2023/08/26 12:15:42;;;;;;;1.90;1.70;;;;;;;50.78;17.18;92332.25;2065037;69;20145;-83
2023/08/26 12:18:09;;;;;;;1.60;1.50;;;;;;;50.52;16.46;92322.91;2068424;69;20557;-85
2023/08/26 12:20:35;;;;;;;2.70;1.63;;;;;;;43.85;22.26;92296.94;2065113;69;20157;-87
2023/08/26 12:23:02;;;;;;;1.90;1.65;;;;;;;46.58;19.59;92298.84;2068351;69;20133;-85